Time;durP1;ratioP1;P1;durP2;ratioP2;P2;SDS_P1;SDS_P2;PMS_P1;PMS_P2;Temp;Humidity;BMP_temperature;BMP_pressure;BME280_temperature;BME280_humidity;BME280_pressure;Samples;Min_cycle;Max_cycle;Signal;HPM_P1;HPM_P2
2021/12/11 00:02:09;;;;;;;47.47;21.47;;;1.90;99.90;;;;;;5006794;28;20458;-71
2021/12/11 00:04:38;;;;;;;44.70;20.60;;;2.00;99.90;;;;;;4991427;28;20451;-71
2021/12/11 00:07:10;;;;;;;56.23;22.07;;;2.00;99.90;;;;;;4991720;28;20951;-71
2021/12/11 00:09:42;;;;;;;53.40;21.30;;;2.00;99.90;;;;;;4991753;28;20951;-71
2021/12/11 00:12:12;;;;;;;45.13;21.30;;;2.00;99.90;;;;;;5002533;28;20455;-71
2021/12/11 00:14:43;;;;;;;56.07;23.20;;;2.00;99.90;;;;;;4997942;28;20482;-71
2021/12/11 00:17:11;;;;;;;53.63;22.83;;;2.00;99.90;;;;;;4991526;28;20463;-71
2021/12/11 00:19:40;;;;;;;43.67;22.17;;;2.00;99.90;;;;;;4996546;28;20817;-71
2021/12/11 00:22:10;;;;;;;50.53;22.57;;;2.00;99.90;;;;;;5004057;28;20888;-72
2021/12/11 00:24:38;;;;;;;48.57;22.90;;;1.90;99.90;;;;;;5003084;28;20517;-71
2021/12/11 00:27:09;;;;;;;54.10;22.70;;;1.90;99.90;;;;;;5008587;28;20473;-71
2021/12/11 00:29:37;;;;;;;57.63;23.40;;;1.90;99.90;;;;;;5011129;28;20497;-71
2021/12/11 00:32:08;;;;;;;52.83;22.80;;;1.90;99.90;;;;;;5029669;22;20505;-88
2021/12/11 00:34:36;;;;;;;44.23;20.90;;;1.90;99.90;;;;;;5012460;28;20442;-90
2021/12/11 00:37:05;;;;;;;52.60;22.63;;;1.90;99.90;;;;;;5013201;28;20454;-89
2021/12/11 00:39:38;;;;;;;59.30;23.60;;;2.00;99.90;;;;;;5016642;28;20508;-90
2021/12/11 00:42:11;;;;;;;44.47;23.37;;;1.90;99.90;;;;;;5035383;28;20508;-90
2021/12/11 00:44:40;;;;;;;44.93;21.20;;;1.90;99.90;;;;;;5036284;28;20527;-90
2021/12/11 00:47:13;;;;;;;48.40;21.97;;;1.90;99.90;;;;;;5036354;28;20453;-89
2021/12/11 00:49:53;;;;;;;45.03;20.43;;;1.90;99.90;;;;;;5034842;28;20488;-89
2021/12/11 00:52:29;;;;;;;43.67;20.57;;;1.90;99.90;;;;;;5022585;28;20808;-89
2021/12/11 00:54:56;;;;;;;46.30;21.30;;;1.90;99.90;;;;;;5025355;28;20446;-89
2021/12/11 00:57:25;;;;;;;43.77;20.27;;;1.90;99.90;;;;;;5016449;28;20905;-89
2021/12/11 01:00:09;;;;;;;45.50;21.00;;;1.90;99.90;;;;;;5016614;28;20447;-89
2021/12/11 01:02:36;;;;;;;45.53;19.33;;;1.90;99.90;;;;;;5016293;28;20486;-89
2021/12/11 01:05:05;;;;;;;44.90;20.13;;;1.90;99.90;;;;;;5015756;28;20962;-89
2021/12/11 01:07:33;;;;;;;39.37;18.90;;;1.90;99.90;;;;;;5015940;28;20468;-89
2021/12/11 01:10:05;;;;;;;35.40;19.60;;;1.90;99.90;;;;;;5018655;28;20477;-90
2021/12/11 01:12:42;;;;;;;42.47;19.57;;;1.90;99.90;;;;;;5027762;28;20835;-89
2021/12/11 01:15:17;;;;;;;37.70;17.83;;;1.90;99.90;;;;;;5026989;28;20449;-89
2021/12/11 01:17:59;;;;;;;35.70;18.47;;;2.00;99.90;;;;;;5035448;28;20487;-89
2021/12/11 01:20:35;;;;;;;33.53;16.63;;;1.90;99.90;;;;;;5035365;28;20457;-90
2021/12/11 01:23:04;;;;;;;36.30;16.83;;;1.90;99.90;;;;;;5035325;28;20477;-89
2021/12/11 01:25:31;;;;;;;36.67;18.37;;;2.00;99.90;;;;;;5034604;28;20465;-90
2021/12/11 01:28:04;;;;;;;41.43;19.97;;;2.00;99.90;;;;;;5024772;28;20454;-89
2021/12/11 01:30:34;;;;;;;44.63;18.97;;;1.90;99.90;;;;;;5022545;28;20477;-89
2021/12/11 01:33:03;;;;;;;36.60;18.47;;;2.00;99.90;;;;;;5035049;28;20488;-90
2021/12/11 01:35:30;;;;;;;39.10;18.40;;;1.90;99.90;;;;;;5027947;28;20954;-89
2021/12/11 01:38:02;;;;;;;33.40;18.60;;;1.90;99.90;;;;;;5015163;28;20976;-90
2021/12/11 01:40:31;;;;;;;30.33;15.90;;;1.90;99.90;;;;;;5015416;28;20474;-89
2021/12/11 01:43:00;;;;;;;39.20;19.33;;;1.90;99.90;;;;;;5011932;28;20479;-89
2021/12/11 01:45:27;;;;;;;34.43;16.50;;;1.90;99.90;;;;;;4995410;28;20498;-90
2021/12/11 01:47:54;;;;;;;36.67;16.90;;;1.90;99.90;;;;;;4995379;28;20876;-89
2021/12/11 01:50:26;;;;;;;40.57;17.30;;;1.90;99.90;;;;;;5006407;28;20485;-89
2021/12/11 01:52:58;;;;;;;39.27;17.23;;;1.90;99.90;;;;;;5034665;28;20457;-89
2021/12/11 01:55:31;;;;;;;34.17;17.67;;;1.90;99.90;;;;;;5034744;28;20438;-89
2021/12/11 01:58:01;;;;;;;36.30;17.07;;;1.90;99.90;;;;;;5034573;28;20918;-89
2021/12/11 02:00:34;;;;;;;46.20;16.73;;;1.90;99.90;;;;;;5034606;28;20426;-90
2021/12/11 02:03:04;;;;;;;36.60;16.90;;;1.90;99.90;;;;;;5015088;28;20474;-89
2021/12/11 02:05:35;;;;;;;39.60;16.30;;;1.90;99.90;;;;;;5031830;28;20449;-89
2021/12/11 02:08:06;;;;;;;35.80;16.30;;;2.00;99.90;;;;;;5034596;28;20461;-89
2021/12/11 02:10:36;;;;;;;35.27;15.83;;;2.00;99.90;;;;;;5033495;28;20476;-89
2021/12/11 02:13:07;;;;;;;36.03;16.03;;;2.00;99.90;;;;;;5034041;28;20466;-89
2021/12/11 02:15:41;;;;;;;38.13;16.30;;;2.00;99.90;;;;;;5034305;28;20452;-90
2021/12/11 02:18:12;;;;;;;24.57;14.13;;;2.00;99.90;;;;;;5034708;28;20453;-89
2021/12/11 02:20:43;;;;;;;33.63;16.20;;;2.10;99.90;;;;;;5034411;28;20453;-90
2021/12/11 02:23:13;;;;;;;29.77;15.80;;;2.10;99.90;;;;;;5014860;28;21007;-90
2021/12/11 02:25:44;;;;;;;33.03;16.67;;;2.10;99.90;;;;;;5012525;28;20519;-89
2021/12/11 02:28:16;;;;;;;25.53;14.57;;;2.10;99.90;;;;;;5014617;28;20882;-90
2021/12/11 02:30:48;;;;;;;33.93;16.53;;;2.10;99.90;;;;;;5014272;28;20482;-90
2021/12/11 02:33:20;;;;;;;34.07;17.43;;;2.10;99.90;;;;;;5014295;28;20478;-90
2021/12/11 02:35:55;;;;;;;35.53;17.57;;;2.20;99.90;;;;;;5014144;28;20480;-90
2021/12/11 02:38:27;;;;;;;31.50;16.20;;;2.20;99.90;;;;;;5010627;28;20442;-89
2021/12/11 02:40:59;;;;;;;37.83;18.27;;;2.20;99.90;;;;;;4994347;28;20423;-89
2021/12/11 02:43:30;;;;;;;35.53;20.43;;;2.10;99.90;;;;;;4994792;28;20447;-89
2021/12/11 02:46:02;;;;;;;37.03;17.90;;;2.10;99.90;;;;;;4994394;28;20411;-89
2021/12/11 02:48:33;;;;;;;34.00;17.93;;;2.10;99.90;;;;;;4994597;28;20816;-89
2021/12/11 02:51:09;;;;;;;39.10;18.30;;;2.10;99.90;;;;;;5022353;28;20556;-89
2021/12/11 02:53:42;;;;;;;33.50;18.03;;;2.10;99.90;;;;;;5034387;28;20465;-89
2021/12/11 02:56:12;;;;;;;36.23;18.47;;;2.10;99.90;;;;;;5034696;28;20437;-90
2021/12/11 02:58:42;;;;;;;35.97;17.93;;;2.10;99.90;;;;;;5034231;28;20457;-90
2021/12/11 03:01:21;;;;;;;29.80;16.43;;;2.20;99.90;;;;;;5016546;28;20455;-89
2021/12/11 03:03:53;;;;;;;40.13;19.40;;;2.20;99.90;;;;;;4995632;28;20822;-90
2021/12/11 03:06:23;;;;;;;35.77;18.77;;;2.20;99.90;;;;;;5008285;28;20458;-90
2021/12/11 03:08:55;;;;;;;30.23;15.50;;;2.20;99.90;;;;;;5015921;28;20471;-90
2021/12/11 03:11:25;;;;;;;25.63;13.87;;;2.20;99.90;;;;;;5032587;28;20505;-89
2021/12/11 03:13:55;;;;;;;22.30;12.77;;;2.20;99.90;;;;;;5039285;28;20454;-90
2021/12/11 03:16:24;;;;;;;19.63;11.27;;;2.20;99.90;;;;;;5033107;28;20922;-90
2021/12/11 03:18:56;;;;;;;19.97;11.17;;;2.20;99.90;;;;;;5026791;28;20450;-89
2021/12/11 03:21:23;;;;;;;20.57;9.53;;;2.20;99.90;;;;;;5032294;28;20469;-89
2021/12/11 03:23:53;;;;;;;16.57;10.57;;;2.20;99.90;;;;;;5028366;28;20463;-89
2021/12/11 03:26:20;;;;;;;20.73;10.50;;;2.20;99.90;;;;;;5013607;28;20460;-88
2021/12/11 03:28:47;;;;;;;24.97;10.90;;;2.30;99.90;;;;;;5013664;28;20500;-88
2021/12/11 03:31:15;;;;;;;18.33;10.70;;;2.30;99.90;;;;;;5029263;28;20559;-90
2021/12/11 03:33:46;;;;;;;19.73;9.97;;;2.20;99.90;;;;;;5020000;28;20457;-89
2021/12/11 03:36:16;;;;;;;21.30;10.83;;;2.30;99.90;;;;;;5026444;28;20458;-90
2021/12/11 03:38:46;;;;;;;20.60;10.67;;;2.30;99.90;;;;;;5013256;28;20466;-89
2021/12/11 03:41:16;;;;;;;21.00;11.50;;;2.20;99.90;;;;;;5029115;28;20442;-89
2021/12/11 03:43:43;;;;;;;19.97;11.87;;;2.30;99.90;;;;;;4993637;28;20455;-89
2021/12/11 03:46:11;;;;;;;23.93;12.60;;;2.20;99.90;;;;;;4993255;28;20490;-90
2021/12/11 03:48:42;;;;;;;19.73;11.63;;;2.20;99.90;;;;;;4993491;28;20439;-89
2021/12/11 03:51:12;;;;;;;22.00;11.30;;;2.20;99.90;;;;;;4993434;28;20486;-89
2021/12/11 03:53:40;;;;;;;22.50;10.60;;;2.30;99.90;;;;;;4993866;28;20455;-89
2021/12/11 03:56:10;;;;;;;21.73;10.27;;;2.30;99.90;;;;;;4993709;28;20517;-89
2021/12/11 03:58:39;;;;;;;25.30;11.70;;;2.30;99.90;;;;;;5004616;28;20489;-89
2021/12/11 04:01:12;;;;;;;20.43;10.73;;;2.30;99.90;;;;;;5013919;28;20970;-89
2021/12/11 04:03:41;;;;;;;15.40;9.70;;;2.30;99.90;;;;;;5028472;28;20490;-89
2021/12/11 04:06:10;;;;;;;18.00;11.07;;;2.30;99.90;;;;;;5053856;28;20425;-89
2021/12/11 04:08:41;;;;;;;23.60;11.43;;;2.30;99.90;;;;;;5048099;28;20457;-89
2021/12/11 04:11:09;;;;;;;21.43;11.07;;;2.30;99.90;;;;;;5034312;28;20494;-89
2021/12/11 04:13:35;;;;;;;21.73;11.17;;;2.30;99.90;;;;;;5005262;28;20450;-89
2021/12/11 04:16:05;;;;;;;22.00;10.53;;;2.30;99.90;;;;;;5016726;28;20954;-90
2021/12/11 04:18:32;;;;;;;17.67;10.70;;;2.30;99.90;;;;;;5016920;28;20459;-88
2021/12/11 04:21:00;;;;;;;18.33;10.00;;;2.30;99.90;;;;;;5016787;28;20454;-89
2021/12/11 04:23:26;;;;;;;16.03;10.30;;;2.30;99.90;;;;;;5016835;28;20450;-89
2021/12/11 04:25:56;;;;;;;23.33;11.10;;;2.30;99.90;;;;;;5016010;28;21032;-89
2021/12/11 04:28:24;;;;;;;23.83;11.50;;;2.20;99.90;;;;;;5016747;28;20809;-88
2021/12/11 04:30:54;;;;;;;20.30;10.60;;;2.20;99.90;;;;;;5017600;28;20497;-89
2021/12/11 04:33:22;;;;;;;17.87;10.97;;;2.20;99.90;;;;;;5016699;28;20982;-90
2021/12/11 04:35:49;;;;;;;21.73;11.60;;;2.20;99.90;;;;;;5015214;28;20462;-89
2021/12/11 04:38:16;;;;;;;21.80;11.33;;;2.20;99.90;;;;;;5019877;28;20453;-90
2021/12/11 04:40:47;;;;;;;18.50;11.07;;;2.20;99.90;;;;;;5029540;28;20454;-90
2021/12/11 04:43:16;;;;;;;27.53;12.27;;;2.20;99.90;;;;;;5024619;28;20552;-89
2021/12/11 04:45:47;;;;;;;24.03;11.40;;;2.20;99.90;;;;;;5032838;28;20464;-90
2021/12/11 04:48:22;;;;;;;19.93;11.90;;;2.20;99.90;;;;;;5036134;28;20469;-89
2021/12/11 04:50:57;;;;;;;21.07;11.53;;;2.20;99.90;;;;;;5056649;23;20499;-69
2021/12/11 04:53:40;;;;;;;21.43;12.50;;;2.20;99.90;;;;;;5054943;28;20454;-69
2021/12/11 04:56:33;;;;;;;26.00;11.87;;;2.20;99.90;;;;;;5055178;28;20460;-68
2021/12/11 04:59:21;;;;;;;19.10;11.40;;;2.20;99.90;;;;;;5041472;28;20565;-69
2021/12/11 05:01:59;;;;;;;21.50;11.83;;;2.20;99.90;;;;;;5034944;28;20451;-68
2021/12/11 05:04:47;;;;;;;20.80;12.70;;;2.20;99.90;;;;;;5040116;28;20456;-68
2021/12/11 05:07:29;;;;;;;24.00;12.50;;;2.10;99.90;;;;;;5054384;28;20464;-69
2021/12/11 05:10:03;;;;;;;18.87;12.37;;;2.10;99.90;;;;;;5054307;28;20463;-68
2021/12/11 05:12:35;;;;;;;28.23;12.50;;;2.10;99.90;;;;;;5054378;28;20459;-69
2021/12/11 05:15:05;;;;;;;22.17;12.40;;;2.10;99.90;;;;;;5043668;28;21009;-69
2021/12/11 05:17:32;;;;;;;26.50;13.10;;;2.30;99.90;;;;;;5053787;28;20476;-69
2021/12/11 05:19:59;;;;;;;18.77;11.50;;;2.10;99.90;;;;;;5038056;28;20457;-68
2021/12/11 05:22:27;;;;;;;19.83;11.87;;;2.20;99.90;;;;;;5034005;28;20522;-69
2021/12/11 05:24:56;;;;;;;21.77;12.70;;;2.10;99.90;;;;;;5042077;28;20457;-68
2021/12/11 05:27:23;;;;;;;21.20;12.90;;;2.10;99.90;;;;;;5052459;28;20452;-69
2021/12/11 05:29:51;;;;;;;22.07;13.07;;;2.20;99.90;;;;;;5030132;28;20473;-69
2021/12/11 05:32:22;;;;;;;21.37;12.57;;;2.20;99.90;;;;;;5033933;28;20507;-69
2021/12/11 05:34:49;;;;;;;23.40;13.37;;;2.20;99.90;;;;;;5041836;28;20448;-69
2021/12/11 05:37:16;;;;;;;27.37;13.47;;;2.20;99.90;;;;;;5053736;28;20509;-69
2021/12/11 05:39:45;;;;;;;23.40;13.80;;;2.20;99.90;;;;;;5053781;28;21057;-69
2021/12/11 05:42:11;;;;;;;24.33;14.33;;;2.20;99.90;;;;;;5051804;28;20506;-69
2021/12/11 05:44:38;;;;;;;20.17;13.10;;;2.20;99.90;;;;;;5025896;28;20457;-69
2021/12/11 05:47:06;;;;;;;24.43;12.93;;;2.20;99.90;;;;;;5034096;28;20504;-69
2021/12/11 05:49:34;;;;;;;25.20;13.57;;;2.20;99.90;;;;;;5034177;28;20485;-69
2021/12/11 05:52:03;;;;;;;25.37;13.40;;;2.20;99.90;;;;;;5033335;28;20513;-69
2021/12/11 05:54:30;;;;;;;27.40;13.63;;;2.20;99.90;;;;;;5037011;28;20460;-69
2021/12/11 05:57:05;;;;;;;25.80;14.10;;;2.20;99.90;;;;;;5052866;28;20452;-71
2021/12/11 05:59:32;;;;;;;25.33;13.90;;;2.20;99.90;;;;;;5043056;28;20495;-71
2021/12/11 06:02:05;;;;;;;23.53;14.20;;;2.20;99.90;;;;;;5016852;28;20450;-69
2021/12/11 06:04:34;;;;;;;29.70;15.87;;;2.10;99.90;;;;;;5018473;28;20453;-72
2021/12/11 06:07:03;;;;;;;30.40;14.93;;;2.20;99.90;;;;;;5033235;28;20507;-71
2021/12/11 06:09:30;;;;;;;25.03;13.33;;;2.20;99.90;;;;;;5033218;28;21022;-69
2021/12/11 06:12:02;;;;;;;26.03;15.03;;;2.20;99.90;;;;;;5030475;28;20484;-69
2021/12/11 06:14:31;;;;;;;26.83;14.20;;;2.20;99.90;;;;;;5028685;28;20453;-69
2021/12/11 06:16:59;;;;;;;28.00;15.40;;;2.20;99.90;;;;;;5043619;28;20871;-70
2021/12/11 06:19:28;;;;;;;30.30;16.20;;;2.10;99.90;;;;;;5019750;28;20472;-70
2021/12/11 06:21:56;;;;;;;30.33;15.93;;;2.10;99.90;;;;;;5042760;28;20824;-72
2021/12/11 06:24:24;;;;;;;29.80;15.90;;;2.10;99.90;;;;;;5019572;28;21022;-71
2021/12/11 06:26:51;;;;;;;32.00;17.10;;;2.10;99.90;;;;;;5052448;28;20502;-70
2021/12/11 06:29:21;;;;;;;29.17;16.87;;;2.10;99.90;;;;;;5052770;28;20476;-70
2021/12/11 06:31:50;;;;;;;36.73;17.33;;;2.10;99.90;;;;;;5052409;28;21065;-68
2021/12/11 06:34:17;;;;;;;33.80;17.80;;;2.20;99.90;;;;;;5046824;28;20515;-68
2021/12/11 06:36:46;;;;;;;33.63;18.23;;;2.10;99.90;;;;;;5052482;28;21025;-69
2021/12/11 06:39:15;;;;;;;37.50;18.80;;;2.10;99.90;;;;;;5052611;28;20879;-70
2021/12/11 06:41:45;;;;;;;39.60;20.30;;;2.00;99.90;;;;;;5052129;28;20506;-70
2021/12/11 06:44:12;;;;;;;47.53;21.70;;;2.00;99.90;;;;;;5051441;28;20449;-70
2021/12/11 06:46:41;;;;;;;51.63;22.67;;;1.90;99.90;;;;;;5031981;28;20452;-70
2021/12/11 06:49:10;;;;;;;52.17;23.37;;;1.80;99.90;;;;;;5050443;23;20242;-91
2021/12/11 06:51:38;;;;;;;46.53;22.20;;;1.80;99.90;;;;;;5035082;28;20482;-92
2021/12/11 06:54:10;;;;;;;42.80;21.97;;;1.70;99.90;;;;;;5033073;28;20454;-92
2021/12/11 06:56:40;;;;;;;36.30;20.03;;;1.60;99.90;;;;;;5044921;28;20458;-92
2021/12/11 06:59:08;;;;;;;52.97;21.90;;;1.60;99.90;;;;;;5030945;28;20522;-89
2021/12/11 07:01:38;;;;;;;42.17;21.93;;;1.60;99.90;;;;;;5028297;28;20476;-91
2021/12/11 07:04:09;;;;;;;48.33;21.97;;;1.50;99.90;;;;;;5037980;28;20461;-89
2021/12/11 07:06:38;;;;;;;42.63;23.03;;;1.50;99.90;;;;;;5037537;28;20460;-90
2021/12/11 07:09:08;;;;;;;44.00;20.50;;;1.50;99.90;;;;;;5025792;28;20454;-89
2021/12/11 07:11:39;;;;;;;46.30;20.97;;;1.40;99.90;;;;;;5034024;28;20477;-87
2021/12/11 07:14:06;;;;;;;44.47;22.87;;;1.40;99.90;;;;;;5005260;28;20452;-89
2021/12/11 07:16:32;;;;;;;48.67;23.80;;;1.40;99.90;;;;;;5027176;28;20460;-90
2021/12/11 07:18:59;;;;;;;48.97;23.40;;;1.40;99.90;;;;;;5035400;28;20469;-90
2021/12/11 07:21:28;;;;;;;53.70;23.70;;;1.30;99.90;;;;;;5022892;28;20477;-88
2021/12/11 07:23:55;;;;;;;53.13;24.77;;;1.30;99.90;;;;;;5019854;28;20466;-88
2021/12/11 07:26:30;;;;;;;58.53;23.00;;;1.30;99.90;;;;;;5033535;28;20454;-89
2021/12/11 07:29:01;;;;;;;55.47;25.00;;;1.30;99.90;;;;;;5043978;28;20449;-90
2021/12/11 07:31:29;;;;;;;52.90;25.47;;;1.30;99.90;;;;;;5050976;28;20492;-88
2021/12/11 07:33:56;;;;;;;55.73;25.40;;;1.30;99.90;;;;;;5042344;28;20522;-90
2021/12/11 07:36:25;;;;;;;58.50;26.47;;;1.30;99.90;;;;;;5038206;28;20532;-89
2021/12/11 07:38:53;;;;;;;54.23;24.63;;;1.30;99.90;;;;;;5034084;28;20454;-89
2021/12/11 07:41:21;;;;;;;53.00;24.47;;;1.30;99.90;;;;;;5041188;28;21020;-88
2021/12/11 07:43:50;;;;;;;53.30;23.80;;;1.30;99.90;;;;;;5044573;28;20505;-89
2021/12/11 07:46:21;;;;;;;50.97;24.40;;;1.30;99.90;;;;;;5044948;28;20440;-88
2021/12/11 07:48:49;;;;;;;51.33;23.83;;;1.30;99.90;;;;;;5031781;28;20457;-88
2021/12/11 07:51:17;;;;;;;57.07;25.80;;;1.30;99.90;;;;;;5026101;28;20493;-89
2021/12/11 07:53:44;;;;;;;65.23;24.73;;;1.30;99.90;;;;;;5028798;28;20457;-89
2021/12/11 07:56:13;;;;;;;56.47;24.47;;;1.30;99.90;;;;;;5029658;28;20450;-92
2021/12/11 07:58:40;;;;;;;58.03;24.77;;;1.40;99.90;;;;;;5040467;28;20611;-89
2021/12/11 08:01:09;;;;;;;52.70;24.43;;;1.40;99.90;;;;;;5012555;28;20470;-89
2021/12/11 08:03:38;;;;;;;55.67;23.23;;;1.40;99.90;;;;;;5010567;28;20449;-90
2021/12/11 08:06:08;;;;;;;58.93;24.20;;;1.50;99.90;;;;;;5045415;28;20459;-90
2021/12/11 08:08:35;;;;;;;73.00;25.10;;;1.50;99.90;;;;;;5049130;28;20454;-91
2021/12/11 08:11:06;;;;;;;55.33;24.37;;;1.60;99.90;;;;;;5041191;28;20466;-90
2021/12/11 08:13:34;;;;;;;60.83;24.47;;;1.70;99.90;;;;;;5031392;28;20486;-91
2021/12/11 08:16:02;;;;;;;57.47;23.70;;;1.70;99.90;;;;;;5026892;28;20458;-92
2021/12/11 08:18:30;;;;;;;62.67;25.93;;;1.80;99.90;;;;;;5040997;28;20478;-91
2021/12/11 08:20:57;;;;;;;52.47;23.83;;;1.80;99.90;;;;;;5031154;28;20474;-89
2021/12/11 08:23:25;;;;;;;60.83;26.67;;;1.90;99.90;;;;;;5030265;28;20550;-90
2021/12/11 08:25:54;;;;;;;53.77;22.00;;;1.90;99.90;;;;;;5030092;28;20530;-91
2021/12/11 08:28:27;;;;;;;56.27;23.33;;;1.70;99.90;;;;;;5028642;28;20493;-90
2021/12/11 08:30:59;;;;;;;47.40;20.13;;;2.00;99.90;;;;;;5022214;28;20485;-89
2021/12/11 08:33:26;;;;;;;49.63;22.10;;;2.00;99.90;;;;;;5018686;28;20444;-90
2021/12/11 08:35:55;;;;;;;67.13;21.80;;;2.20;99.90;;;;;;5017644;28;20459;-90
2021/12/11 08:38:23;;;;;;;51.10;21.90;;;2.00;99.90;;;;;;5035738;28;20532;-91
2021/12/11 08:40:54;;;;;;;51.93;23.07;;;2.10;99.90;;;;;;5046565;28;20477;-91
2021/12/11 08:43:22;;;;;;;53.03;21.47;;;2.20;99.90;;;;;;5045723;28;20445;-91
2021/12/11 08:46:00;;;;;;;48.37;22.13;;;2.20;99.90;;;;;;5048010;28;20521;-91
2021/12/11 08:48:29;;;;;;;51.20;22.10;;;2.20;99.90;;;;;;5044965;28;20534;-91
2021/12/11 08:51:01;;;;;;;56.37;22.63;;;2.20;99.90;;;;;;5043852;28;20485;-90
2021/12/11 08:53:28;;;;;;;46.00;21.63;;;2.20;99.90;;;;;;5031348;28;20443;-90
2021/12/11 08:55:56;;;;;;;44.33;19.60;;;2.20;99.90;;;;;;5037019;28;20480;-91
2021/12/11 08:58:25;;;;;;;48.53;21.10;;;2.20;99.90;;;;;;5025799;28;20458;-90
2021/12/11 09:00:56;;;;;;;43.90;18.90;;;2.30;99.90;;;;;;5033842;28;20473;-91
2021/12/11 09:03:27;;;;;;;46.97;21.30;;;2.30;99.90;;;;;;5044526;28;20464;-91
2021/12/11 09:06:00;;;;;;;51.87;21.87;;;2.30;99.90;;;;;;5027838;28;20456;-91
2021/12/11 09:08:31;;;;;;;47.23;20.00;;;2.40;99.90;;;;;;5041055;28;20443;-91
2021/12/11 09:11:04;;;;;;;50.23;22.13;;;2.40;99.90;;;;;;5026737;28;20481;-91
2021/12/11 09:13:35;;;;;;;52.80;19.70;;;2.60;99.90;;;;;;5027521;28;20446;-91
2021/12/11 09:16:09;;;;;;;43.80;19.10;;;2.60;99.90;;;;;;5025897;28;20458;-91
2021/12/11 09:18:44;;;;;;;47.53;19.40;;;2.70;99.90;;;;;;5019910;28;20464;-91
2021/12/11 09:21:16;;;;;;;35.47;17.70;;;2.80;99.90;;;;;;5029296;28;20989;-92
2021/12/11 09:23:47;;;;;;;38.37;17.40;;;2.90;99.90;;;;;;5019185;28;20522;-91
2021/12/11 09:26:23;;;;;;;43.43;17.83;;;2.90;99.90;;;;;;5029689;28;20442;-91
2021/12/11 09:28:54;;;;;;;50.00;19.63;;;2.80;99.90;;;;;;5015371;28;20931;-90
2021/12/11 09:31:26;;;;;;;47.43;19.37;;;2.90;99.90;;;;;;5018440;28;20478;-88
2021/12/11 09:33:57;;;;;;;44.60;20.13;;;3.10;99.90;;;;;;5012418;28;20451;-89
2021/12/11 09:36:30;;;;;;;114.10;47.43;;;3.30;99.90;;;;;;5023975;28;20458;-87
2021/12/11 09:39:04;;;;;;;38.13;17.73;;;3.60;99.90;;;;;;5038579;28;20522;-88
2021/12/11 09:41:33;;;;;;;38.70;17.30;;;4.20;99.90;;;;;;5025412;28;20541;-87
2021/12/11 09:44:06;;;;;;;47.77;20.07;;;4.70;99.90;;;;;;5018660;28;20488;-87
2021/12/11 09:46:37;;;;;;;48.10;18.70;;;5.10;99.90;;;;;;5014929;28;20446;-88
2021/12/11 09:49:07;;;;;;;34.00;17.30;;;5.30;99.90;;;;;;5027957;28;20454;-87
2021/12/11 09:51:38;;;;;;;38.00;17.13;;;5.30;99.90;;;;;;5047427;28;20516;-87
2021/12/11 09:54:08;;;;;;;40.37;18.50;;;5.50;99.90;;;;;;5028924;28;20512;-87
2021/12/11 09:56:40;;;;;;;46.93;18.90;;;5.70;99.90;;;;;;5020793;28;20554;-88
2021/12/11 09:59:14;;;;;;;42.53;18.90;;;6.20;99.90;;;;;;5042746;28;20473;-87
2021/12/11 10:01:44;;;;;;;39.13;18.50;;;6.80;99.90;;;;;;5019184;28;20478;-87
2021/12/11 10:04:16;;;;;;;33.20;16.23;;;7.20;99.90;;;;;;5019068;28;20501;-86
2021/12/11 10:07:13;;;;;;;32.23;16.80;;;7.60;99.90;;;;;;5018718;28;20463;-86
2021/12/11 10:09:44;;;;;;;29.00;15.97;;;7.70;99.90;;;;;;5017907;28;20481;-87
2021/12/11 10:12:15;;;;;;;34.80;17.23;;;7.70;99.90;;;;;;5040461;28;20617;-87
2021/12/11 10:14:47;;;;;;;34.53;16.33;;;7.70;99.90;;;;;;5039585;28;20477;-87
2021/12/11 10:17:20;;;;;;;30.53;15.20;;;7.60;99.90;;;;;;5024047;28;20939;-87
2021/12/11 10:19:48;;;;;;;28.77;15.37;;;7.60;99.90;;;;;;5015023;28;20498;-87
2021/12/11 10:22:18;;;;;;;30.77;15.47;;;7.40;99.90;;;;;;5027573;28;20474;-87
2021/12/11 10:24:46;;;;;;;31.80;15.53;;;7.00;99.90;;;;;;5022474;28;20453;-87
2021/12/11 10:27:16;;;;;;;34.53;15.80;;;6.80;99.90;;;;;;5028340;28;20482;-88
2021/12/11 10:29:46;;;;;;;31.53;15.70;;;6.60;99.90;;;;;;5022925;28;20505;-88
2021/12/11 10:32:16;;;;;;;30.60;15.90;;;6.90;99.90;;;;;;5044358;28;20549;-88
2021/12/11 10:34:46;;;;;;;32.70;16.57;;;7.00;99.90;;;;;;5038915;28;20429;-88
2021/12/11 10:37:16;;;;;;;32.97;14.80;;;7.10;99.90;;;;;;5045256;28;20452;-89
2021/12/11 10:39:46;;;;;;;30.57;15.07;;;7.20;99.90;;;;;;5056532;28;20453;-89
2021/12/11 10:42:14;;;;;;;34.83;14.83;;;7.60;99.90;;;;;;5054112;28;20465;-89
2021/12/11 10:44:47;;;;;;;33.63;16.67;;;7.80;99.90;;;;;;5044359;28;20438;-89
2021/12/11 10:47:19;;;;;;;34.30;16.47;;;8.10;99.90;;;;;;5053464;28;20440;-89
2021/12/11 10:49:48;;;;;;;36.83;16.27;;;8.30;99.90;;;;;;5045138;28;20442;-89
2021/12/11 10:52:18;;;;;;;35.57;16.83;;;8.50;99.90;;;;;;5038935;28;20484;-90
2021/12/11 10:54:48;;;;;;;30.97;15.07;;;8.50;99.90;;;;;;5024684;28;20545;-90
2021/12/11 10:57:17;;;;;;;32.40;15.27;;;8.50;99.90;;;;;;5025852;28;20470;-89
2021/12/11 10:59:48;;;;;;;32.67;16.33;;;8.80;99.90;;;;;;5043551;28;20457;-90
2021/12/11 11:02:20;;;;;;;40.43;15.57;;;8.90;99.90;;;;;;5027400;28;20470;-89
2021/12/11 11:04:49;;;;;;;30.67;14.90;;;8.80;99.90;;;;;;5005149;28;20452;-89
2021/12/11 11:07:16;;;;;;;32.07;15.83;;;8.60;99.90;;;;;;5027770;28;20525;-90
2021/12/11 11:09:45;;;;;;;33.73;16.80;;;8.40;99.90;;;;;;5024816;28;20461;-90
2021/12/11 11:12:16;;;;;;;38.50;16.73;;;8.30;99.90;;;;;;5032477;28;20489;-92
2021/12/11 11:14:45;;;;;;;35.83;17.20;;;8.00;99.90;;;;;;5032651;28;20469;-89
2021/12/11 11:17:15;;;;;;;32.93;16.53;;;7.40;99.90;;;;;;5025259;28;20446;-91
2021/12/11 11:19:43;;;;;;;45.03;21.05;;;7.10;99.90;;;;;;5055317;23;20467;-70
2021/12/11 11:22:14;;;;;;;33.30;17.40;;;6.50;99.90;;;;;;5050689;28;20277;-70
2021/12/11 11:24:44;;;;;;;37.87;17.10;;;6.10;99.90;;;;;;5050616;28;20449;-70
2021/12/11 11:27:12;;;;;;;34.63;16.33;;;5.90;99.90;;;;;;5030486;28;20862;-70
2021/12/11 11:29:47;;;;;;;39.17;18.52;;;5.70;99.90;;;;;;5043074;28;20489;-71
2021/12/11 11:32:18;;;;;;;39.80;17.90;;;5.50;99.90;;;;;;5055616;23;20812;-68
2021/12/11 11:34:46;;;;;;;40.80;17.47;;;5.40;99.90;;;;;;5051755;28;20500;-68
2021/12/11 11:37:16;;;;;;;37.87;18.10;;;5.40;99.90;;;;;;5045366;28;20441;-68
2021/12/11 11:39:43;;;;;;;38.20;17.13;;;5.30;99.90;;;;;;5054956;28;20443;-68
2021/12/11 11:42:15;;;;;;;38.87;18.73;;;5.30;99.90;;;;;;5046672;28;20540;-68
2021/12/11 11:44:45;;;;;;;38.63;17.27;;;5.40;99.90;;;;;;5024222;28;20957;-69
2021/12/11 11:47:15;;;;;;;41.53;17.67;;;5.60;99.90;;;;;;5025042;28;20449;-69
2021/12/11 11:49:42;;;;;;;38.20;17.07;;;5.50;99.90;;;;;;5035897;28;20480;-68
2021/12/11 11:52:11;;;;;;;40.43;17.17;;;5.60;99.90;;;;;;5036817;28;20501;-67
2021/12/11 11:54:40;;;;;;;42.33;16.63;;;5.70;99.90;;;;;;5044747;28;20502;-68
2021/12/11 11:57:10;;;;;;;36.00;16.97;;;5.90;99.90;;;;;;5050460;28;20452;-68
2021/12/11 11:59:39;;;;;;;42.10;17.40;;;6.10;99.90;;;;;;5021470;28;20448;-68
2021/12/11 12:02:09;;;;;;;45.43;18.93;;;6.30;99.90;;;;;;5032939;28;20524;-69
2021/12/11 12:04:37;;;;;;;40.17;18.33;;;6.30;99.90;;;;;;5030386;28;20515;-69
2021/12/11 12:07:06;;;;;;;36.53;17.40;;;6.20;99.90;;;;;;5039074;28;20503;-68
2021/12/11 12:09:37;;;;;;;42.83;17.77;;;6.50;99.90;;;;;;5030918;28;20988;-69
2021/12/11 12:12:05;;;;;;;39.33;18.07;;;6.40;99.90;;;;;;5029281;28;21212;-69
2021/12/11 12:14:34;;;;;;;37.27;18.70;;;6.10;99.90;;;;;;5026660;28;20446;-69
2021/12/11 12:17:02;;;;;;;38.60;17.57;;;5.90;99.90;;;;;;5032182;28;20951;-71
2021/12/11 12:19:29;;;;;;;43.80;17.40;;;5.70;99.90;;;;;;5037908;28;20461;-69
2021/12/11 12:22:00;;;;;;;40.23;17.60;;;5.70;99.90;;;;;;5027505;28;20477;-69
2021/12/11 12:24:31;;;;;;;43.53;17.40;;;5.50;99.90;;;;;;5010766;28;20493;-69
2021/12/11 12:26:59;;;;;;;40.80;17.17;;;5.40;99.90;;;;;;5016661;28;20984;-69
2021/12/11 12:29:27;;;;;;;37.80;17.67;;;5.20;99.90;;;;;;5040972;28;20947;-69
2021/12/11 12:31:58;;;;;;;42.23;17.40;;;5.20;99.90;;;;;;5034606;28;20473;-69
2021/12/11 12:34:27;;;;;;;42.83;17.23;;;5.10;99.90;;;;;;5034128;28;21057;-69
2021/12/11 12:36:55;;;;;;;38.37;18.57;;;5.10;99.90;;;;;;5033531;28;20445;-69
2021/12/11 12:39:27;;;;;;;35.90;17.73;;;5.00;99.90;;;;;;5030910;28;20867;-69
2021/12/11 12:42:04;;;;;;;39.27;17.97;;;5.00;99.90;;;;;;5032560;28;20475;-69
2021/12/11 12:44:35;;;;;;;36.87;16.73;;;5.00;99.90;;;;;;5041125;28;20469;-68
2021/12/11 12:47:09;;;;;;;39.27;17.80;;;5.00;99.90;;;;;;5033367;28;20457;-68
2021/12/11 12:49:41;;;;;;;37.87;17.93;;;5.00;99.90;;;;;;5039440;28;20540;-67
2021/12/11 12:52:11;;;;;;;40.53;17.00;;;5.00;99.90;;;;;;5033429;28;20476;-68